Time;durP1;ratioP1;P1;durP2;ratioP2;P2;SDS_P1;SDS_P2;PMS_P1;PMS_P2;Temp;Humidity;BMP_temperature;BMP_pressure;BME280_temperature;BME280_humidity;BME280_pressure;Samples;Min_cycle;Max_cycle;Signal;HPM_P1;HPM_P2
2022/10/05 00:00:54;;;;;;;19.57;12.20;;;;;;;8.01;82.84;99403.53;1740324;81;25495;-60
2022/10/05 00:03:21;;;;;;;18.02;9.55;;;;;;;8.07;82.90;99402.42;1739185;82;27436;-60
2022/10/05 00:05:48;;;;;;;21.75;10.20;;;;;;;8.07;83.78;99400.23;1739886;81;26100;-61
2022/10/05 00:08:26;;;;;;;19.15;10.95;;;;;;;8.04;84.30;99401.05;1739780;82;25605;-60
2022/10/05 00:10:52;;;;;;;29.63;14.47;;;;;;;8.01;84.78;99394.78;1716725;82;25466;-60
2022/10/05 00:13:26;;;;;;;23.22;9.43;;;;;;;8.01;84.96;99395.34;1739747;82;25621;-60
2022/10/05 00:16:14;;;;;;;19.77;10.10;;;;;;;8.00;85.58;99393.16;1740017;82;28286;-61
2022/10/05 00:18:42;;;;;;;20.50;9.65;;;;;;;8.04;84.85;99386.60;1740081;81;25616;-60
2022/10/05 00:21:25;;;;;;;25.50;10.20;;;;;;;8.06;85.11;99390.41;1738533;82;25870;-60
2022/10/05 00:23:54;;;;;;;18.75;8.90;;;;;;;8.08;84.96;99388.20;1739753;82;27532;-60
2022/10/05 00:26:24;;;;;;;22.32;9.93;;;;;;;8.10;84.94;99382.76;1740040;82;25577;-60
2022/10/05 00:28:53;;;;;;;23.50;11.33;;;;;;;8.13;84.62;99392.30;1740104;82;27449;-60
2022/10/05 00:31:24;;;;;;;30.68;12.80;;;;;;;8.12;84.49;99387.38;1739965;81;25730;-60
2022/10/05 00:33:50;;;;;;;;;;;;;;;8.11;84.42;99387.11;1740978;82;25645;-60
2022/10/05 00:36:17;;;;;;;26.90;13.30;;;;;;;8.11;84.40;99387.65;1739936;82;25633;-60
2022/10/05 00:38:44;;;;;;;36.28;14.25;;;;;;;8.07;84.96;99385.22;1740116;82;25681;-60
2022/10/05 00:41:52;;;;;;;29.30;11.38;;;;;;;8.03;85.06;99384.95;1740110;82;27430;-60
2022/10/05 00:44:38;;;;;;;28.07;10.88;;;;;;;8.00;84.84;99379.50;1739383;82;25459;-60
2022/10/05 00:47:10;;;;;;;28.30;10.20;;;;;;;8.00;85.12;99377.34;1739293;82;25741;-60
2022/10/05 00:50:10;;;;;;;33.02;11.53;;;;;;;7.99;85.19;99373.78;1734809;82;27661;-60
2022/10/05 00:53:04;;;;;;;30.20;10.43;;;;;;;7.99;84.93;99367.50;1731293;82;25483;-60
2022/10/05 00:55:55;;;;;;;22.02;9.65;;;;;;;8.00;84.95;99367.79;1730997;82;29561;-60
2022/10/05 00:59:10;;;;;;;29.00;11.20;;;;;;;8.01;85.12;99357.12;1730359;82;25616;-60
2022/10/05 01:02:15;;;;;;;27.55;13.55;;;;;;;8.01;85.12;99357.12;1731044;82;25519;-60
2022/10/05 01:05:17;;;;;;;28.35;11.38;;;;;;;7.95;85.41;99348.16;1731402;82;26219;-60
2022/10/05 01:08:00;;;;;;;24.37;9.18;;;;;;;7.90;85.70;99339.44;1730882;82;25664;-60
2022/10/05 01:10:37;;;;;;;33.90;10.75;;;;;;;7.83;86.17;99329.91;1730982;82;27362;-60
2022/10/05 01:13:14;;;;;;;31.07;11.15;;;;;;;7.80;86.14;99320.92;1730126;82;27208;-60
2022/10/05 01:16:11;;;;;;;26.77;11.10;;;;;;;7.77;86.24;99319.55;1731265;82;25676;-60
2022/10/05 01:18:58;;;;;;;23.38;9.95;;;;;;;7.76;86.14;99313.83;1731067;82;25530;-59
2022/10/05 01:21:26;;;;;;;27.87;10.60;;;;;;;7.74;86.49;99311.91;1731103;82;25435;-59
2022/10/05 01:24:23;;;;;;;28.67;10.23;;;;;;;7.73;86.76;99313.02;1731042;82;29542;-60
2022/10/05 01:27:13;;;;;;;29.75;11.43;;;;;;;7.76;87.00;99315.19;1730866;82;25652;-60
2022/10/05 01:30:02;;;;;;;24.80;10.32;;;;;;;7.79;86.61;99318.73;1730159;82;25478;-60
2022/10/05 01:32:42;;;;;;;25.52;9.88;;;;;;;7.81;86.56;99322.01;1730293;82;25733;-60
2022/10/05 01:35:20;;;;;;;27.65;10.30;;;;;;;7.82;86.52;99313.25;1731159;82;25709;-60
2022/10/05 01:38:07;;;;;;;23.25;9.28;;;;;;;7.81;86.41;99314.36;1730978;82;29494;-60
2022/10/05 01:40:47;;;;;;;24.80;9.25;;;;;;;7.77;86.61;99315.45;1689447;84;25705;-60
2022/10/05 01:43:45;;;;;;;24.60;8.50;;;;;;;7.75;86.73;99316.30;1688709;84;25523;-60
2022/10/05 01:46:31;;;;;;;19.37;7.35;;;;;;;7.71;87.13;99325.58;1704206;84;25673;-60
2022/10/05 01:49:21;;;;;;;20.97;8.63;;;;;;;7.71;87.18;99330.23;1689947;84;25821;-60
2022/10/05 01:52:36;;;;;;;28.73;10.72;;;;;;;7.72;87.04;99339.50;1647492;86;28208;-60
2022/10/05 01:55:16;;;;;;;22.00;9.70;;;;;;;7.74;86.93;99329.11;1647709;87;25766;-60
2022/10/05 01:58:12;;;;;;;21.82;8.88;;;;;;;7.78;86.86;99322.56;1636942;87;25723;-60
2022/10/05 02:01:07;;;;;;;16.12;6.22;;;;;;;7.81;86.83;99306.17;1653366;86;25781;-60
2022/10/05 02:03:45;;;;;;;15.63;6.85;;;;;;;7.85;86.80;99308.60;1636801;87;25503;-60
2022/10/05 02:06:19;;;;;;;18.55;8.33;;;;;;;7.87;86.66;99302.33;1653758;86;27469;-60
2022/10/05 02:09:05;;;;;;;17.35;6.72;;;;;;;7.88;86.46;99305.31;1637073;87;25742;-60
2022/10/05 02:11:33;;;;;;;16.75;7.35;;;;;;;7.85;86.45;99290.86;1653836;86;25721;-58
2022/10/05 02:14:12;;;;;;;16.82;6.42;;;;;;;7.85;86.26;99290.86;1637037;87;26131;-60
2022/10/05 02:16:45;;;;;;;19.02;7.25;;;;;;;7.85;86.49;99289.50;1658565;84;25509;-59
2022/10/05 02:19:26;;;;;;;17.70;8.78;;;;;;;7.88;86.39;99291.67;1677693;85;28216;-62
2022/10/05 02:21:57;;;;;;;23.47;9.95;;;;;;;7.92;86.25;99292.77;1677829;85;25630;-62
2022/10/05 02:24:31;;;;;;;20.82;8.75;;;;;;;7.97;86.01;99294.09;1676420;85;25612;-60
2022/10/05 02:26:58;;;;;;;18.80;8.13;;;;;;;7.99;85.96;99278.80;1677602;85;25663;-58
2022/10/05 02:29:29;;;;;;;11.50;5.67;;;;;;;8.00;85.85;99274.42;1677685;85;25647;-59
2022/10/05 02:32:01;;;;;;;15.50;6.15;;;;;;;8.00;85.79;99275.78;1677675;85;27449;-59
2022/10/05 02:34:32;;;;;;;15.05;6.03;;;;;;;8.00;85.61;99264.87;1685627;84;25489;-59
2022/10/05 02:37:27;;;;;;;15.03;7.60;;;;;;;8.01;85.56;99265.12;1710305;83;25468;-59
2022/10/05 02:40:25;;;;;;;17.37;7.10;;;;;;;8.03;85.37;99270.30;1710189;83;27567;-59
2022/10/05 02:43:14;;;;;;;15.63;8.25;;;;;;;8.06;85.27;99273.04;1710366;83;25458;-60
2022/10/05 02:45:58;;;;;;;16.40;8.33;;;;;;;8.06;85.10;99275.77;1710728;83;27441;-59
2022/10/05 02:48:48;;;;;;;17.92;8.50;;;;;;;8.08;85.01;99274.92;1710228;83;27181;-59
2022/10/05 02:51:25;;;;;;;26.60;11.28;;;;;;;8.09;84.83;99270.55;1713904;83;25632;-59
2022/10/05 02:54:06;;;;;;;24.43;10.80;;;;;;;8.12;84.75;99279.53;1716889;83;25484;-59
2022/10/05 02:57:02;;;;;;;20.45;8.68;;;;;;;8.11;84.72;99276.55;1634441;86;25547;-59
2022/10/05 02:59:55;;;;;;;14.45;6.87;;;;;;;8.09;84.66;99275.20;1636048;87;27446;-59
2022/10/05 03:02:35;;;;;;;15.05;5.80;;;;;;;8.06;84.75;99288.05;1659453;86;25792;-59
2022/10/05 03:05:25;;;;;;;15.05;6.80;;;;;;;8.02;84.77;99302.80;1634614;87;25741;-59
2022/10/05 03:08:18;;;;;;;14.63;6.08;;;;;;;7.99;84.75;99296.00;1635542;87;25549;-59
2022/10/05 03:11:14;;;;;;;14.43;6.70;;;;;;;7.99;84.63;99294.63;1659174;86;25705;-59
2022/10/05 03:13:48;;;;;;;15.45;7.22;;;;;;;8.04;84.50;99297.89;1634097;87;29600;-59
2022/10/05 03:16:43;;;;;;;22.32;11.03;;;;;;;8.07;84.43;99297.33;1635924;87;25722;-59
2022/10/05 03:19:39;;;;;;;20.70;10.60;;;;;;;8.09;84.12;99303.87;1659062;86;25726;-59
2022/10/05 03:22:19;;;;;;;16.17;8.00;;;;;;;8.02;83.94;99304.16;1634423;87;26532;-59
2022/10/05 03:24:59;;;;;;;19.33;7.63;;;;;;;7.89;84.12;99326.87;1659775;86;25803;-59
2022/10/05 03:27:42;;;;;;;21.68;8.20;;;;;;;7.82;84.41;99321.44;1634207;87;27419;-59
2022/10/05 03:30:22;;;;;;;18.48;8.48;;;;;;;7.74;84.24;99325.55;1659652;86;27171;-59
2022/10/05 03:33:02;;;;;;;21.93;9.23;;;;;;;7.61;84.38;99335.98;1636027;83;25775;-58
2022/10/05 03:36:01;;;;;;;31.12;12.98;;;;;;;7.59;84.67;99331.34;1714631;83;25447;-59
2022/10/05 03:38:50;;;;;;;20.12;9.10;;;;;;;7.58;84.63;99330.26;1718192;83;25595;-58
2022/10/05 03:41:41;;;;;;;21.73;9.00;;;;;;;7.57;84.55;99331.36;1720025;83;27992;-58
2022/10/05 03:44:25;;;;;;;22.82;11.12;;;;;;;7.55;84.61;99330.27;1719996;83;25498;-58
2022/10/05 03:47:13;;;;;;;19.57;9.13;;;;;;;7.53;84.77;99336.54;1720464;83;25479;-58
2022/10/05 03:50:01;;;;;;;24.55;10.25;;;;;;;7.51;84.52;99340.91;1720088;83;25670;-59
2022/10/05 03:52:33;;;;;;;20.88;9.40;;;;;;;7.53;84.60;99333.81;1706951;83;25572;-58
2022/10/05 03:55:04;;;;;;;24.75;9.33;;;;;;;7.50;84.64;99327.02;1710457;83;27392;-58
2022/10/05 03:57:35;;;;;;;17.70;7.62;;;;;;;7.45;84.82;99320.19;1702792;83;25630;-58
2022/10/05 04:00:15;;;;;;;25.35;8.70;;;;;;;7.40;85.20;99315.56;1723203;83;25439;-58
2022/10/05 04:03:05;;;;;;;25.72;13.78;;;;;;;7.36;85.25;99310.41;1723446;83;25617;-58
2022/10/05 04:05:46;;;;;;;20.52;8.68;;;;;;;7.30;85.56;99302.50;1723243;83;25673;-58
2022/10/05 04:08:59;;;;;;;22.60;7.50;;;;;;;7.27;85.90;99304.70;1723852;82;27384;-58
2022/10/05 04:11:51;;;;;;;21.65;8.13;;;;;;;7.28;86.28;99304.97;1723333;82;25484;-58
2022/10/05 04:14:35;;;;;;;18.32;6.60;;;;;;;7.28;86.16;99291.33;1723063;83;25605;-59
2022/10/05 04:17:06;;;;;;;15.43;6.62;;;;;;;7.31;86.46;99284.50;1723593;82;25464;-59
2022/10/05 04:19:47;;;;;;;15.18;6.95;;;;;;;7.37;86.57;99285.33;1697997;83;25512;-58
2022/10/05 04:22:21;;;;;;;16.30;6.42;;;;;;;7.40;86.34;99284.20;1719847;83;30008;-59
2022/10/05 04:25:25;;;;;;;15.08;6.78;;;;;;;7.44;86.57;99275.47;1723254;82;26008;-59
2022/10/05 04:28:20;;;;;;;14.93;6.92;;;;;;;7.44;86.38;99282.30;1679890;84;25497;-59
2022/10/05 04:30:53;;;;;;;18.10;7.55;;;;;;;7.40;86.53;99291.02;1625549;88;25614;-59
2022/10/05 04:33:24;;;;;;;19.07;8.18;;;;;;;7.33;86.37;99294.59;1625644;88;25748;-59
2022/10/05 04:35:58;;;;;;;15.58;6.45;;;;;;;7.31;86.42;99300.86;1626126;88;26928;-59
2022/10/05 04:38:59;;;;;;;18.17;7.95;;;;;;;7.30;86.55;99302.50;1625270;88;25694;-59
2022/10/05 04:41:45;;;;;;;22.02;9.20;;;;;;;7.30;86.11;99304.69;1626276;88;25759;-59
2022/10/05 04:44:47;;;;;;;16.05;7.55;;;;;;;7.33;85.99;99304.14;1625957;88;26443;-59
2022/10/05 04:47:18;;;;;;;17.67;8.00;;;;;;;7.33;86.00;99304.14;1572285;91;25720;-59
2022/10/05 04:50:12;;;;;;;19.57;8.58;;;;;;;7.38;85.92;99313.69;1572321;91;27424;-59
2022/10/05 04:52:57;;;;;;;15.18;6.80;;;;;;;7.39;85.80;99318.03;1580232;89;25975;-59
2022/10/05 04:55:51;;;;;;;13.15;6.08;;;;;;;7.37;86.02;99311.23;1581204;90;25589;-63
2022/10/05 04:59:04;;;;;;;17.25;8.13;;;;;;;7.32;86.71;99303.05;1580282;90;25549;-60
2022/10/05 05:02:05;;;;;;;21.05;9.20;;;;;;;7.30;86.44;99304.69;1586049;89;25790;-60
2022/10/05 05:04:52;;;;;;;18.23;7.37;;;;;;;7.34;86.41;99310.42;1596892;89;27705;-60
2022/10/05 05:07:42;;;;;;;15.55;7.22;;;;;;;7.37;86.46;99314.75;1599659;88;25897;-60
2022/10/05 05:10:33;;;;;;;13.53;5.65;;;;;;;7.40;86.39;99303.30;1612685;89;25525;-58
2022/10/05 05:13:37;;;;;;;14.53;6.40;;;;;;;7.43;86.81;99295.66;1612781;89;25621;-58
2022/10/05 05:16:36;;;;;;;11.48;5.22;;;;;;;7.46;86.69;99295.11;1612743;89;25597;-60
2022/10/05 05:19:08;;;;;;;10.98;5.12;;;;;;;7.46;86.54;99290.48;1612845;89;27630;-60
2022/10/05 05:22:03;;;;;;;9.35;5.33;;;;;;;7.49;86.72;99298.66;1612639;88;27133;-61
2022/10/05 05:24:59;;;;;;;14.63;6.00;;;;;;;7.49;86.57;99291.27;1731190;82;25684;-61
2022/10/05 05:28:01;;;;;;;10.50;5.33;;;;;;;7.55;86.62;99287.17;1731193;82;25796;-60
2022/10/05 05:30:39;;;;;;;10.88;5.10;;;;;;;7.61;86.16;99296.97;1731161;82;25585;-61
2022/10/05 05:33:43;;;;;;;8.53;4.35;;;;;;;7.72;86.11;99290.94;1730261;82;27446;-61
2022/10/05 05:36:37;;;;;;;9.83;5.85;;;;;;;7.77;86.00;99274.52;1730831;82;25717;-60
2022/10/05 05:39:14;;;;;;;7.80;4.62;;;;;;;7.84;85.79;99276.96;1729778;82;25627;-60
2022/10/05 05:42:20;;;;;;;8.95;5.45;;;;;;;7.87;85.66;99284.05;1731256;82;25578;-60
2022/10/05 05:44:53;;;;;;;11.38;5.62;;;;;;;7.90;85.62;99294.95;1731151;82;25702;-60
2022/10/05 05:47:27;;;;;;;9.88;5.08;;;;;;;7.94;85.79;99304.20;1701713;82;27494;-60
2022/10/05 05:50:05;;;;;;;11.43;5.87;;;;;;;7.98;85.72;99311.29;1731225;82;25580;-60
2022/10/05 05:52:51;;;;;;;10.28;6.22;;;;;;;8.03;85.82;99316.16;1725385;81;25527;-60
2022/10/05 05:55:39;;;;;;;10.50;5.75;;;;;;;8.08;85.81;99320.78;1723569;82;25661;-60
2022/10/05 05:58:23;;;;;;;7.60;5.08;;;;;;;8.16;85.45;99313.92;1723053;82;25688;-60
2022/10/05 06:01:00;;;;;;;9.70;5.15;;;;;;;8.18;85.20;99298.63;1722357;83;27487;-60
2022/10/05 06:03:38;;;;;;;8.13;4.30;;;;;;;8.22;85.19;99305.15;1722693;83;25482;-60
2022/10/05 06:06:09;;;;;;;9.80;4.92;;;;;;;8.29;85.19;99306.47;1723423;82;25616;-60
2022/10/05 06:08:46;;;;;;;8.68;5.22;;;;;;;8.38;84.92;99306.69;1723722;82;25448;-60
2022/10/05 06:11:23;;;;;;;9.43;5.00;;;;;;;8.47;84.79;99319.75;1706710;84;25527;-59
2022/10/05 06:13:51;;;;;;;8.90;5.70;;;;;;;8.54;84.88;99316.17;1708031;84;27451;-60
2022/10/05 06:16:38;;;;;;;5.45;3.62;;;;;;;8.58;84.69;99315.87;1707723;84;27194;-59
2022/10/05 06:19:12;;;;;;;9.05;3.90;;;;;;;8.60;84.48;99318.31;1707564;84;25673;-59
2022/10/05 06:21:44;;;;;;;9.13;4.65;;;;;;;8.57;84.27;99315.61;1708372;84;25758;-60
2022/10/05 06:24:31;;;;;;;6.30;3.90;;;;;;;8.62;84.62;99307.93;1707769;84;25745;-60
2022/10/05 06:27:23;;;;;;;6.05;3.40;;;;;;;8.71;84.45;99307.59;1707683;84;29522;-59
2022/10/05 06:30:04;;;;;;;3.75;2.42;;;;;;;8.80;84.37;99305.05;1707238;84;25727;-59
2022/10/05 06:32:59;;;;;;;4.78;3.58;;;;;;;8.92;84.16;99312.88;1708267;84;25727;-60
2022/10/05 06:35:36;;;;;;;12.03;5.08;;;;;;;9.07;84.25;99305.66;1707649;84;27469;-60
2022/10/05 06:38:30;;;;;;;11.38;6.00;;;;;;;9.25;84.70;99304.94;1708396;84;25464;-61
2022/10/05 06:41:23;;;;;;;9.88;5.10;;;;;;;9.42;84.47;99306.41;1707300;84;27466;-61
2022/10/05 06:44:04;;;;;;;19.10;11.08;;;;;;;9.61;83.95;99303.72;1707543;84;25758;-60
2022/10/05 06:46:47;;;;;;;10.35;6.00;;;;;;;9.86;83.55;99314.66;1707832;84;25731;-60
2022/10/05 06:49:40;;;;;;;13.00;6.35;;;;;;;10.08;82.65;99316.03;1696380;84;25740;-59
2022/10/05 06:52:21;;;;;;;9.33;5.47;;;;;;;10.30;82.66;99326.41;1697244;84;25664;-59
2022/10/05 06:55:08;;;;;;;7.97;4.62;;;;;;;10.50;82.11;99322.59;1701082;84;29593;-59
2022/10/05 06:57:42;;;;;;;11.88;5.62;;;;;;;10.63;80.55;99321.05;1700902;84;25488;-59
2022/10/05 07:00:23;;;;;;;9.05;4.22;;;;;;;10.72;80.94;99312.95;1701683;84;25688;-59
2022/10/05 07:03:04;;;;;;;10.25;5.90;;;;;;;10.72;79.84;99328.03;1701713;84;26228;-59
2022/10/05 07:05:57;;;;;;;11.68;6.35;;;;;;;10.72;80.35;99328.03;1702352;84;25401;-59
2022/10/05 07:08:52;;;;;;;10.03;5.92;;;;;;;10.74;80.81;99318.94;1701878;84;27582;-59
2022/10/05 07:11:58;;;;;;;13.62;6.28;;;;;;;10.83;80.17;99326.50;1701607;84;25844;-60
2022/10/05 07:15:05;;;;;;;15.65;9.03;;;;;;;11.02;80.62;99327.81;1701951;84;25660;-59
2022/10/05 07:18:01;;;;;;;13.03;7.80;;;;;;;11.27;80.04;99327.12;1701820;84;25535;-59
2022/10/05 07:20:38;;;;;;;12.10;6.60;;;;;;;11.61;79.39;99323.21;1701634;84;25476;-59
2022/10/05 07:23:25;;;;;;;12.70;7.53;;;;;;;12.01;78.47;99323.25;1702179;84;27378;-60
2022/10/05 07:26:15;;;;;;;14.58;7.60;;;;;;;12.27;79.43;99324.89;1701567;84;25686;-60
2022/10/05 07:29:09;;;;;;;15.25;8.58;;;;;;;12.50;78.19;99322.22;1701771;84;25648;-60
2022/10/05 07:31:59;;;;;;;16.67;8.88;;;;;;;12.60;76.40;99319.77;1701851;84;25646;-60
2022/10/05 07:35:02;;;;;;;16.02;9.40;;;;;;;12.68;75.09;99320.97;1701756;84;25480;-60
2022/10/05 07:37:55;;;;;;;17.23;9.15;;;;;;;12.76;77.05;99321.61;1701925;84;27329;-60
2022/10/05 07:40:32;;;;;;;15.78;8.20;;;;;;;12.80;75.94;99317.66;1701882;84;25629;-60
2022/10/05 07:43:41;;;;;;;17.20;9.75;;;;;;;12.70;73.93;99315.98;1701915;84;25499;-60
2022/10/05 07:46:25;;;;;;;14.45;7.78;;;;;;;12.59;75.41;99314.03;1701677;84;25493;-59
2022/10/05 07:49:18;;;;;;;10.98;5.37;;;;;;;12.57;76.06;99304.45;1701626;84;25495;-61
2022/10/05 07:51:55;;;;;;;8.88;5.33;;;;;;;12.62;74.15;99299.66;1701653;84;27491;-60
2022/10/05 07:54:48;;;;;;;13.08;5.95;;;;;;;12.75;74.37;99293.05;1699248;84;25618;-59
2022/10/05 07:57:25;;;;;;;10.08;5.55;;;;;;;12.95;74.24;99295.83;1702045;84;25499;-61
2022/10/05 08:00:05;;;;;;;15.80;6.65;;;;;;;13.17;74.19;99307.39;1701436;84;25625;-60
2022/10/05 08:02:57;;;;;;;8.70;6.10;;;;;;;13.36;73.73;99306.33;1701837;84;25433;-60
2022/10/05 08:05:30;;;;;;;7.15;4.50;;;;;;;13.63;72.53;99292.70;1701754;84;27496;-60
2022/10/05 08:08:30;;;;;;;9.98;4.70;;;;;;;13.83;70.94;99289.12;1701763;84;25441;-61
2022/10/05 08:11:11;;;;;;;8.88;4.97;;;;;;;14.02;72.44;99304.02;1701868;84;25617;-61
2022/10/05 08:13:48;;;;;;;5.90;3.80;;;;;;;14.40;73.11;99306.14;1702404;84;25649;-61
2022/10/05 08:16:16;;;;;;;6.15;4.15;;;;;;;14.82;70.00;99315.11;1701820;84;25487;-61
2022/10/05 08:19:18;;;;;;;4.62;3.20;;;;;;;14.96;69.77;99310.77;1701795;84;26818;-61
2022/10/05 08:21:58;;;;;;;8.68;4.90;;;;;;;15.16;67.96;99321.69;1702147;84;25591;-58
2022/10/05 08:24:55;;;;;;;7.83;4.40;;;;;;;15.28;69.85;99325.15;1701551;84;35126;-58
2022/10/05 08:27:44;;;;;;;5.20;4.03;;;;;;;15.57;68.39;99325.56;1700981;84;25481;-60
2022/10/05 08:30:14;;;;;;;6.92;4.70;;;;;;;15.83;68.90;99334.30;1702229;84;25590;-60
2022/10/05 08:32:46;;;;;;;7.83;4.70;;;;;;;16.07;69.27;99331.52;1702259;84;27478;-61
2022/10/05 08:35:36;;;;;;;5.58;4.40;;;;;;;16.33;68.17;99336.89;1702123;84;25773;-61
2022/10/05 08:38:13;;;;;;;6.37;4.30;;;;;;;16.59;67.61;99337.83;1701445;84;25653;-61
2022/10/05 08:41:11;;;;;;;7.87;4.83;;;;;;;16.75;64.66;99331.13;1702112;84;26184;-60
2022/10/05 08:44:16;;;;;;;8.58;5.47;;;;;;;16.71;65.23;99334.31;1701713;84;25704;-61
2022/10/05 08:47:31;;;;;;;9.15;5.70;;;;;;;16.73;65.44;99330.08;1701881;84;28110;-60
2022/10/05 08:50:38;;;;;;;7.28;4.85;;;;;;;16.70;65.53;99333.52;1701661;84;25713;-60
2022/10/05 08:53:32;;;;;;;7.70;4.80;;;;;;;16.80;64.26;99337.25;1699842;83;25615;-60
2022/10/05 08:56:04;;;;;;;8.63;5.72;;;;;;;17.11;64.96;99340.74;1694468;84;26299;-59
2022/10/05 08:59:18;;;;;;;10.78;6.08;;;;;;;17.42;65.10;99338.63;1693815;84;25650;-59
2022/10/05 09:02:08;;;;;;;8.55;4.78;;;;;;;17.71;64.80;99338.20;1694762;84;27462;-59
2022/10/05 09:04:52;;;;;;;11.38;5.85;;;;;;;17.86;61.34;99328.95;1694240;84;25684;-59
2022/10/05 09:07:48;;;;;;;8.50;5.10;;;;;;;18.00;63.68;99321.67;1694657;84;25590;-59
2022/10/05 09:10:47;;;;;;;8.13;5.40;;;;;;;18.25;62.47;99325.84;1694389;84;25571;-59
2022/10/05 09:13:40;;;;;;;10.90;4.80;;;;;;;18.31;61.77;99326.62;1694239;84;25436;-59
2022/10/05 09:16:33;;;;;;;7.78;4.90;;;;;;;18.30;60.16;99319.47;1694490;84;27493;-61
2022/10/05 09:19:42;;;;;;;6.20;3.52;;;;;;;18.36;62.29;99317.25;1694472;84;25669;-59
2022/10/05 09:22:38;;;;;;;4.85;3.60;;;;;;;18.47;60.03;99317.57;1694381;84;25440;-60
2022/10/05 09:25:16;;;;;;;4.20;3.22;;;;;;;18.40;60.59;99308.45;1693071;84;25503;-63
2022/10/05 09:27:56;;;;;;;;;;;;;;;18.42;59.86;99311.69;1696447;84;25571;-60
2022/10/05 09:31:01;;;;;;;8.10;2.90;;;;;;;18.53;59.74;99309.23;1694389;84;28806;-60
2022/10/05 09:33:57;;;;;;;3.52;2.98;;;;;;;18.58;57.79;99303.20;1694072;84;25480;-60
2022/10/05 09:37:10;;;;;;;5.33;3.08;;;;;;;18.64;58.74;99301.79;1694197;84;25523;-60
2022/10/05 09:40:32;;;;;;;5.17;2.98;;;;;;;18.76;57.81;99296.77;1694548;84;26308;-60
2022/10/05 09:43:22;;;;;;;6.15;2.58;;;;;;;18.97;57.11;99303.48;1694101;84;25756;-60
2022/10/05 09:46:06;;;;;;;5.92;3.22;;;;;;;19.23;56.56;99300.04;1694380;84;29487;-59
2022/10/05 09:49:11;;;;;;;5.65;2.80;;;;;;;19.47;56.43;99307.98;1693315;84;25951;-59
2022/10/05 09:52:05;;;;;;;4.37;3.40;;;;;;;19.45;55.39;99297.81;1693536;84;25657;-59
2022/10/05 09:54:39;;;;;;;3.60;2.83;;;;;;;19.60;56.58;99309.50;1699390;83;26198;-59
2022/10/05 09:57:23;;;;;;;6.35;2.87;;;;;;;19.72;54.68;99303.05;1701337;84;25420;-60
2022/10/05 10:00:00;;;;;;;6.25;2.95;;;;;;;19.71;54.25;99306.20;1702111;84;27401;-64
2022/10/05 10:03:01;;;;;;;4.78;2.80;;;;;;;19.67;55.07;99304.13;1697155;84;25500;-59
2022/10/05 10:05:48;;;;;;;5.95;3.30;;;;;;;19.69;52.87;99304.56;1702105;84;25672;-59
2022/10/05 10:08:31;;;;;;;6.35;3.77;;;;;;;19.71;54.85;99308.98;1702155;84;26020;-58
2022/10/05 10:11:28;;;;;;;8.38;3.30;;;;;;;19.89;55.33;99310.19;1701701;84;25492;-59
2022/10/05 10:14:18;;;;;;;7.20;3.17;;;;;;;20.07;55.21;99305.67;1701956;84;28232;-59
2022/10/05 10:17:05;;;;;;;4.42;2.60;;;;;;;20.34;54.51;99310.03;1702087;84;25612;-59
2022/10/05 10:20:16;;;;;;;3.95;2.40;;;;;;;20.50;53.37;99311.38;1701947;84;25431;-60
2022/10/05 10:23:07;;;;;;;3.65;2.45;;;;;;;20.47;52.47;99306.54;1701946;84;26287;-59
2022/10/05 10:25:44;;;;;;;4.70;2.65;;;;;;;20.50;53.30;99317.52;1701641;84;25441;-59
2022/10/05 10:28:33;;;;;;;3.17;2.30;;;;;;;20.70;52.57;99316.95;1699401;84;29427;-59
2022/10/05 10:31:42;;;;;;;4.42;2.27;;;;;;;20.81;52.24;99322.70;1701480;84;25707;-59
2022/10/05 10:34:40;;;;;;;5.60;2.30;;;;;;;21.01;51.75;99323.53;1701985;84;25763;-59
2022/10/05 10:37:58;;;;;;;4.40;2.45;;;;;;;21.36;52.00;99324.56;1701769;84;25655;-59
2022/10/05 10:41:07;;;;;;;3.37;2.40;;;;;;;21.56;52.04;99328.09;1701903;84;25472;-61
2022/10/05 10:44:05;;;;;;;3.92;2.45;;;;;;;21.69;51.26;99328.73;1700919;84;29556;-60
2022/10/05 10:47:08;;;;;;;5.47;2.58;;;;;;;22.01;49.41;99325.44;1701769;84;25624;-59
2022/10/05 10:50:04;;;;;;;7.15;2.30;;;;;;;22.00;48.82;99335.00;1701749;84;25506;-59
2022/10/05 10:52:42;;;;;;;5.05;2.45;;;;;;;21.98;48.44;99327.58;1701729;84;25766;-59
2022/10/05 10:56:01;;;;;;;8.83;2.62;;;;;;;21.84;49.14;99322.00;1708632;83;25735;-59
2022/10/05 10:58:54;;;;;;;6.37;3.00;;;;;;;21.95;48.49;99322.17;1710395;83;27486;-59
2022/10/05 11:01:48;;;;;;;3.37;2.65;;;;;;;21.99;48.52;99323.02;1708770;83;25875;-61
2022/10/05 11:04:56;;;;;;;5.72;2.90;;;;;;;22.13;49.07;99315.45;1710405;83;25483;-59
2022/10/05 11:08:12;;;;;;;4.33;2.37;;;;;;;22.24;46.69;99317.59;1710248;83;25605;-59
2022/10/05 11:11:12;;;;;;;5.53;3.20;;;;;;;22.11;47.94;99310.05;1708854;83;25597;-59
2022/10/05 11:13:52;;;;;;;4.33;2.30;;;;;;;22.20;48.02;99310.58;1710230;83;26635;-60
2022/10/05 11:17:01;;;;;;;3.60;2.10;;;;;;;22.33;47.29;99303.38;1710435;83;25644;-59
2022/10/05 11:20:00;;;;;;;4.53;2.25;;;;;;;22.37;47.35;99304.22;1709673;83;25625;-60
2022/10/05 11:22:53;;;;;;;3.35;2.12;;;;;;;22.27;47.04;99310.67;1710277;83;25500;-59
2022/10/05 11:25:46;;;;;;;3.12;2.20;;;;;;;22.18;46.93;99303.16;1710139;83;25637;-61
2022/10/05 11:28:39;;;;;;;3.42;1.75;;;;;;;22.29;47.15;99292.97;1683619;84;28096;-59
2022/10/05 11:31:29;;;;;;;2.70;2.30;;;;;;;22.15;45.80;99289.38;1683120;85;25772;-59
2022/10/05 11:34:29;;;;;;;3.55;1.72;;;;;;;22.15;47.78;99289.38;1679785;85;25716;-59
2022/10/05 11:37:10;;;;;;;;;;;;;;;22.01;45.97;99291.95;1684648;85;27557;-59
2022/10/05 11:39:54;;;;;;;6.20;3.37;;;;;;;21.94;47.68;99293.45;1682950;85;25522;-60
2022/10/05 11:43:09;;;;;;;8.88;2.80;;;;;;;22.08;48.40;99290.69;1683018;85;29480;-57
2022/10/05 11:45:52;;;;;;;2.77;1.90;;;;;;;22.22;47.72;99303.22;1683090;85;26052;-59
2022/10/05 11:48:42;;;;;;;5.30;2.08;;;;;;;22.08;44.83;99291.27;1683262;85;25680;-59
2022/10/05 11:51:28;;;;;;;3.72;2.25;;;;;;;21.82;44.28;99300.66;1683342;85;25711;-59
2022/10/05 11:54:22;;;;;;;2.12;1.90;;;;;;;21.85;47.65;99300.50;1683725;84;25743;-58
2022/10/05 11:57:11;;;;;;;2.12;1.45;;;;;;;21.92;45.73;99300.02;1693272;84;27711;-58
2022/10/05 12:00:01;;;;;;;5.10;1.98;;;;;;;21.73;44.16;99303.66;1691676;84;25542;-58
2022/10/05 12:03:08;;;;;;;4.12;2.25;;;;;;;21.62;46.15;99288.15;1675541;84;25884;-58
2022/10/05 12:06:16;;;;;;;5.45;2.35;;;;;;;21.69;46.33;99284.68;1715150;83;26709;-58
2022/10/05 12:09:00;;;;;;;4.70;3.33;;;;;;;21.53;44.84;99285.63;1719610;83;25688;-58
2022/10/05 12:12:06;;;;;;;3.98;1.70;;;;;;;21.51;46.49;99276.84;1717267;83;29621;-58
2022/10/05 12:14:52;;;;;;;4.35;1.90;;;;;;;21.41;45.03;99283.84;1720111;83;25458;-58
2022/10/05 12:17:42;;;;;;;3.40;1.70;;;;;;;21.33;46.36;99282.70;1720215;83;25684;-58
2022/10/05 12:20:17;;;;;;;2.98;1.60;;;;;;;21.19;46.01;99282.67;1720315;83;25444;-58
2022/10/05 12:22:51;;;;;;;4.97;1.70;;;;;;;21.00;44.95;99275.15;1720575;83;25707;-58
2022/10/05 12:25:50;;;;;;;2.62;1.65;;;;;;;20.91;46.16;99269.24;1720575;83;27504;-58
2022/10/05 12:28:21;;;;;;;3.52;2.17;;;;;;;20.79;46.16;99270.77;1719787;83;25675;-58
2022/10/05 12:31:09;;;;;;;5.22;2.80;;;;;;;20.53;45.65;99264.69;1720680;83;25548;-58
2022/10/05 12:33:55;;;;;;;3.70;2.35;;;;;;;20.45;47.09;99265.73;1719923;83;25688;-60
2022/10/05 12:36:48;;;;;;;5.35;2.90;;;;;;;20.49;46.60;99251.28;1720189;83;25456;-58
2022/10/05 12:39:20;;;;;;;9.40;5.03;;;;;;;20.43;47.77;99256.92;1719987;83;28282;-58
2022/10/05 12:41:52;;;;;;;3.33;2.08;;;;;;;20.29;46.55;99252.67;1719617;83;25725;-58
2022/10/05 12:44:47;;;;;;;3.15;2.08;;;;;;;20.22;47.08;99251.72;1719632;83;25635;-58
2022/10/05 12:47:28;;;;;;;5.45;2.35;;;;;;;20.16;46.83;99254.80;1720016;83;25624;-57
2022/10/05 12:50:17;;;;;;;2.62;1.98;;;;;;;20.15;47.44;99247.61;1720390;83;25625;-58
2022/10/05 12:53:10;;;;;;;4.80;1.83;;;;;;;20.19;47.86;99244.91;1720380;83;27495;-59
2022/10/05 12:56:10;;;;;;;5.62;2.10;;;;;;;20.10;47.60;99242.34;1720135;83;25613;-59
2022/10/05 12:58:47;;;;;;;5.70;2.12;;;;;;;20.09;48.07;99241.32;1720556;83;26720;-58
2022/10/05 13:01:53;;;;;;;3.15;2.87;;;;;;;20.04;46.12;99233.46;1719515;83;25665;-58
2022/10/05 13:04:34;;;;;;;5.40;3.75;;;;;;;19.87;46.72;99231.08;1720329;83;25762;-59
2022/10/05 13:07:29;;;;;;;2.95;1.80;;;;;;;19.73;47.11;99219.85;1661547;86;27473;-58
2022/10/05 13:10:39;;;;;;;2.42;1.75;;;;;;;19.65;47.18;99224.44;1653209;86;26022;-57